createdAt,value
2018-12-09T00:00:54.506Z,98977.58
2018-12-09T00:03:24.117Z,98973.99
2018-12-09T00:05:54.141Z,98959.59
2018-12-09T00:08:23.678Z,98964.58
2018-12-09T00:10:53.820Z,98725.49
2018-12-09T00:13:23.378Z,98940.56
2018-12-09T00:15:53.322Z,98933.89
2018-12-09T00:18:23.578Z,98936.53
2018-12-09T00:20:53.292Z,98927.01
2018-12-09T00:23:23.094Z,98924.19
2018-12-09T00:25:53.054Z,98915.54
2018-12-09T00:28:23.247Z,98907.91
2018-12-09T00:30:53.176Z,98892.88
2018-12-09T00:33:23.278Z,98892.88
2018-12-09T00:35:53.649Z,98885.14
2018-12-09T00:38:23.758Z,98866.22
2018-12-09T00:40:56.320Z,98892.98
2018-12-09T00:43:28.286Z,98879.78
2018-12-09T00:45:58.566Z,98883.27
2018-12-09T00:48:31.526Z,98869.52
2018-12-09T00:51:01.070Z,98871.20
2018-12-09T00:53:31.279Z,98876.30
2018-12-09T00:56:01.328Z,98879.41
2018-12-09T00:58:30.865Z,98876.30
2018-12-09T01:01:01.136Z,98882.72
2018-12-09T01:03:30.799Z,98893.92
2018-12-09T01:06:02.553Z,98915.31
2018-12-09T01:08:32.618Z,98887.59
2018-12-09T01:11:04.072Z,98880.44
2018-12-09T01:13:33.824Z,98870.56
2018-12-09T01:16:03.486Z,98898.45
2018-12-09T01:18:33.313Z,98910.21
2018-12-09T01:21:03.375Z,98905.13
2018-12-09T01:23:33.196Z,98905.97
2018-12-09T01:26:03.407Z,98905.97
2018-12-09T01:28:33.128Z,98911.16
2018-12-09T01:31:03.074Z,98920.00
2018-12-09T01:33:33.010Z,98909.55
2018-12-09T01:36:02.567Z,98922.46
2018-12-09T01:38:32.117Z,98939.13
2018-12-09T01:41:04.846Z,98917.11
2018-12-09T01:43:34.916Z,98917.11
2018-12-09T01:46:04.790Z,98920.67
2018-12-09T01:48:34.400Z,98917.45
2018-12-09T01:51:04.611Z,98929.80
2018-12-09T01:54:17.218Z,98929.03
2018-12-09T01:56:49.382Z,98929.03
2018-12-09T01:59:16.863Z,98931.49
2018-12-09T02:01:46.612Z,98929.98
2018-12-09T02:04:16.650Z,98937.63
2018-12-09T02:06:46.530Z,98935.27
2018-12-09T02:09:16.340Z,98946.29
2018-12-09T02:11:48.819Z,98923.95
2018-12-09T02:14:18.288Z,98906.52
2018-12-09T02:16:48.122Z,98919.05
2018-12-09T02:19:22.694Z,98919.26
2018-12-09T02:21:52.486Z,98968.42
2018-12-09T02:24:22.426Z,98922.34
2018-12-09T02:26:52.640Z,98933.17
2018-12-09T02:29:22.282Z,98924.71
2018-12-09T02:31:53.086Z,98941.48
2018-12-09T02:34:22.641Z,98947.80
2018-12-09T02:36:52.257Z,98962.19
2018-12-09T02:39:22.005Z,98949.93
2018-12-09T02:41:52.513Z,98967.77
2018-12-09T02:44:22.246Z,98964.91
2018-12-09T02:46:52.217Z,98975.53
2018-12-09T02:49:22.376Z,98975.53
2018-12-09T02:51:52.350Z,98989.77
2018-12-09T02:54:22.398Z,98963.55
2018-12-09T02:56:52.454Z,98972.28
2018-12-09T02:59:22.485Z,98981.00
2018-12-09T03:01:51.908Z,98952.98
2018-12-09T03:04:22.344Z,98981.11
2018-12-09T03:06:52.111Z,98963.77
2018-12-09T03:09:21.940Z,98974.47
2018-12-09T03:11:51.706Z,98987.26
2018-12-09T03:14:21.679Z,98968.83
2018-12-09T03:16:51.697Z,98970.86
2018-12-09T03:19:21.755Z,98978.59
2018-12-09T03:21:51.318Z,98969.64
2018-12-09T03:24:21.312Z,98977.06
2018-12-09T03:26:51.136Z,98965.42
2018-12-09T03:29:20.654Z,98992.28
2018-12-09T03:31:53.372Z,98974.73
2018-12-09T03:34:22.977Z,98982.25
2018-12-09T03:36:52.740Z,98989.98
2018-12-09T03:39:22.341Z,98974.59
2018-12-09T03:41:52.248Z,98986.56
2018-12-09T03:44:22.434Z,99022.79
2018-12-09T03:46:52.207Z,98999.16
2018-12-09T03:49:22.436Z,98999.56
2018-12-09T03:51:52.183Z,99028.59
2018-12-09T03:54:22.164Z,99009.52
2018-12-09T03:56:52.197Z,99008.98
2018-12-09T03:59:22.374Z,98997.67
2018-12-09T04:01:52.086Z,99012.25
2018-12-09T04:04:22.228Z,99006.27
2018-12-09T04:06:52.094Z,99005.16
2018-12-09T04:09:21.588Z,98995.22
2018-12-09T04:11:51.616Z,99005.11
2018-12-09T04:14:21.987Z,99001.45
2018-12-09T04:16:51.946Z,99007.97
2018-12-09T04:19:21.759Z,99002.23
2018-12-09T04:21:51.265Z,99016.77
2018-12-09T04:24:20.972Z,98997.98
2018-12-09T04:26:51.615Z,99009.43
2018-12-09T04:29:21.317Z,99015.83
2018-12-09T04:31:51.440Z,99017.34
2018-12-09T04:34:21.517Z,99023.38
2018-12-09T04:36:51.376Z,99026.02
2018-12-09T04:39:21.383Z,99034.09
2018-12-09T04:41:50.953Z,99025.59
2018-12-09T04:44:24.050Z,99030.79
2018-12-09T04:46:54.251Z,99020.08
2018-12-09T04:49:24.205Z,99019.41
2018-12-09T04:51:59.316Z,99016.77
2018-12-09T04:54:29.074Z,99025.99
2018-12-09T04:56:59.327Z,99027.73
2018-12-09T04:59:28.957Z,99017.02
2018-12-09T05:01:59.120Z,99023.02
2018-12-09T05:04:29.104Z,99045.36
2018-12-09T05:06:58.734Z,99007.33
2018-12-09T05:09:28.616Z,99035.48
2018-12-09T05:11:58.155Z,99028.89
2018-12-09T05:14:28.293Z,99025.16
2018-12-09T05:16:58.067Z,99026.23
2018-12-09T05:19:28.035Z,99035.83
2018-12-09T05:21:57.940Z,99027.09
2018-12-09T05:24:27.831Z,99036.12
2018-12-09T05:27:00.118Z,99037.15
2018-12-09T05:29:30.479Z,99037.88
2018-12-09T05:32:00.162Z,99043.42
2018-12-09T05:34:29.852Z,99054.10
2018-12-09T05:36:59.985Z,99052.78
2018-12-09T05:39:29.492Z,99052.22
2018-12-09T05:41:59.425Z,99065.39
2018-12-09T05:44:29.585Z,99084.55
2018-12-09T05:46:59.461Z,99073.09
2018-12-09T05:49:29.398Z,99081.34
2018-12-09T05:51:58.865Z,99097.61
2018-12-09T05:54:28.623Z,99100.25
2018-12-09T05:56:58.195Z,99145.66
2018-12-09T05:59:28.091Z,99100.75
2018-12-09T06:02:35.141Z,99106.18
2018-12-09T06:05:05.417Z,99148.95
2018-12-09T06:07:35.520Z,99163.18
2018-12-09T06:10:06.226Z,99129.05
2018-12-09T06:12:36.062Z,99124.86
2018-12-09T06:15:05.965Z,99135.92
2018-12-09T06:17:35.615Z,99123.94
2018-12-09T06:20:05.922Z,99132.30
2018-12-09T06:22:38.612Z,99133.41
2018-12-09T06:25:05.769Z,99149.27
2018-12-09T06:27:35.662Z,99152.59
2018-12-09T06:30:06.996Z,99162.48
2018-12-09T06:32:36.843Z,99162.27
2018-12-09T06:35:06.752Z,99158.07
2018-12-09T06:37:36.450Z,99171.47
2018-12-09T06:40:06.864Z,99168.52
2018-12-09T06:42:36.611Z,99167.95
2018-12-09T06:45:07.271Z,99175.30
2018-12-09T06:47:37.013Z,99183.03
2018-12-09T06:50:09.698Z,99186.81
2018-12-09T06:52:39.619Z,99242.20
2018-12-09T06:55:10.055Z,99200.48
2018-12-09T06:57:39.867Z,99195.84
2018-12-09T07:00:09.903Z,99192.43
2018-12-09T07:02:41.853Z,99202.63
2018-12-09T07:05:10.534Z,99192.26
2018-12-09T07:07:40.277Z,99205.87
2018-12-09T07:10:10.903Z,99210.98
2018-12-09T07:12:40.609Z,99213.81
2018-12-09T07:15:10.497Z,99216.06
2018-12-09T07:17:40.424Z,99204.55
2018-12-09T07:20:10.367Z,99229.58
2018-12-09T07:22:40.379Z,99230.61
2018-12-09T07:25:10.187Z,99229.34
2018-12-09T07:27:39.897Z,99237.38
2018-12-09T07:30:11.261Z,99242.83
2018-12-09T07:32:41.625Z,99237.90
2018-12-09T07:35:11.332Z,99252.83
2018-12-09T07:37:41.975Z,99255.97
2018-12-09T07:40:12.393Z,99254.95
2018-12-09T07:42:42.209Z,99272.95
2018-12-09T07:45:12.041Z,99281.02
2018-12-09T07:47:42.162Z,99271.03
2018-12-09T07:50:12.278Z,99279.53
2018-12-09T07:52:42.643Z,99285.02
2018-12-09T07:55:12.524Z,99292.06
2018-12-09T07:57:42.467Z,99299.01
2018-12-09T08:00:14.279Z,99301.26
2018-12-09T08:02:45.765Z,99316.64
2018-12-09T08:05:15.834Z,99303.23
2018-12-09T08:07:45.768Z,99303.50
2018-12-09T08:10:15.905Z,99319.27
2018-12-09T08:12:45.826Z,99312.38
2018-12-09T08:15:15.832Z,99326.88
2018-12-09T08:17:45.727Z,99324.39
2018-12-09T08:20:15.593Z,99317.48
2018-12-09T08:22:45.563Z,99322.33
2018-12-09T08:25:15.488Z,99326.03
2018-12-09T08:27:45.611Z,99325.70
2018-12-09T08:30:15.263Z,99341.47
2018-12-09T08:32:44.938Z,99348.56
2018-12-09T08:35:15.352Z,99352.03
2018-12-09T08:37:44.833Z,99357.43
2018-12-09T08:40:15.307Z,99358.14
2018-12-09T08:42:47.809Z,99368.92
2018-12-09T08:45:18.773Z,99360.44
2018-12-09T08:47:48.503Z,99365.37
2018-12-09T08:50:18.099Z,99368.13
2018-12-09T08:52:47.885Z,99374.38
2018-12-09T08:55:17.459Z,99356.63
2018-12-09T08:57:47.519Z,99362.73
2018-12-09T09:00:17.729Z,99359.07
2018-12-09T09:02:47.435Z,99364.94
2018-12-09T09:05:17.500Z,99364.98
2018-12-09T09:07:50.155Z,99373.66
2018-12-09T09:10:21.983Z,99371.03
2018-12-09T09:12:50.065Z,99376.28
2018-12-09T09:15:22.505Z,99379.29
2018-12-09T09:17:52.349Z,99380.88
2018-12-09T09:20:21.997Z,99382.25
2018-12-09T09:22:54.728Z,99392.84
2018-12-09T09:25:24.883Z,99389.80
2018-12-09T09:27:54.755Z,99402.55
2018-12-09T09:30:24.367Z,99406.36
2018-12-09T09:32:54.128Z,99410.12
2018-12-09T09:35:23.897Z,99411.25
2018-12-09T09:37:53.710Z,99415.58
2018-12-09T09:40:23.277Z,99426.48
2018-12-09T09:42:53.185Z,99423.33
2018-12-09T09:45:23.012Z,99435.30
2018-12-09T09:47:52.919Z,99438.38
2018-12-09T09:50:22.790Z,99440.15
2018-12-09T09:52:53.119Z,99439.22
2018-12-09T09:55:22.823Z,99438.31
2018-12-09T09:57:54.681Z,99446.72
2018-12-09T10:00:26.370Z,99445.66
2018-12-09T10:02:56.874Z,99467.90
2018-12-09T10:05:27.085Z,99471.38
2018-12-09T10:08:00.184Z,99469.84
2018-12-09T10:10:31.822Z,99473.02
2018-12-09T10:13:02.822Z,99476.31
2018-12-09T10:15:32.912Z,99482.55
2018-12-09T10:18:02.855Z,99469.27
2018-12-09T10:20:32.237Z,99476.31
2018-12-09T10:23:02.018Z,99479.19
2018-12-09T10:25:31.666Z,99508.30
2018-12-09T10:28:01.791Z,99492.09
2018-12-09T10:30:31.805Z,99479.61
2018-12-09T10:33:01.413Z,99498.67
2018-12-09T10:35:31.751Z,99489.85
2018-12-09T10:38:01.626Z,99489.61
2018-12-09T10:40:32.138Z,99493.38
2018-12-09T10:43:02.464Z,99495.11
2018-12-09T10:45:32.496Z,99493.13
2018-12-09T10:48:02.718Z,99497.08
2018-12-09T10:50:32.747Z,99496.89
2018-12-09T10:53:02.871Z,99499.05
2018-12-09T10:55:32.341Z,99508.34
2018-12-09T10:58:02.002Z,99506.36
2018-12-09T11:00:49.426Z,99500.20
2018-12-09T11:03:19.071Z,99496.52
2018-12-09T11:05:49.112Z,99505.30
2018-12-09T11:08:18.965Z,99494.83
2018-12-09T11:10:48.776Z,99507.73
2018-12-09T11:13:18.843Z,99507.47
2018-12-09T11:15:48.804Z,99507.47
2018-12-09T11:18:19.263Z,99507.98
2018-12-09T11:20:48.799Z,99505.78
2018-12-09T11:23:18.637Z,99512.43
2018-12-09T11:25:48.573Z,99523.51
2018-12-09T11:28:18.637Z,99510.01
2018-12-09T11:30:50.321Z,99510.01
2018-12-09T11:33:18.029Z,99528.31
2018-12-09T11:35:50.851Z,99526.77
2018-12-09T11:38:20.914Z,99534.84
2018-12-09T11:40:50.618Z,99547.08
2018-12-09T11:43:21.239Z,99545.66
2018-12-09T11:45:51.775Z,99538.38
2018-12-09T11:48:21.750Z,99543.48
2018-12-09T11:50:53.034Z,99548.12
2018-12-09T11:53:24.600Z,99548.12
2018-12-09T11:55:54.930Z,99554.17
2018-12-09T11:58:24.622Z,99556.93
2018-12-09T12:00:57.908Z,99546.95
2018-12-09T12:03:28.222Z,99553.52
2018-12-09T12:05:59.177Z,99560.94
2018-12-09T12:08:28.926Z,99566.58
2018-12-09T12:11:01.382Z,99569.92
2018-12-09T12:13:31.286Z,99572.55
2018-12-09T12:16:01.194Z,99571.34
2018-12-09T12:18:30.834Z,99555.38
2018-12-09T12:21:03.404Z,99560.13
2018-12-09T12:23:33.399Z,99560.13
2018-12-09T12:26:04.312Z,99560.61
2018-12-09T12:28:34.610Z,99563.31
2018-12-09T12:31:04.648Z,99578.30
2018-12-09T12:33:34.398Z,99569.54
2018-12-09T12:36:04.624Z,99568.91
2018-12-09T12:38:34.942Z,99560.85
2018-12-09T12:41:05.581Z,99585.59
2018-12-09T12:43:36.118Z,99566.28
2018-12-09T12:46:07.658Z,99563.64
2018-12-09T12:48:38.460Z,99569.25
2018-12-09T12:51:09.123Z,99570.91
2018-12-09T12:53:39.986Z,99570.91
2018-12-09T12:56:10.605Z,99587.38
2018-12-09T12:58:46.249Z,99575.98
2018-12-09T13:01:16.576Z,99584.72
2018-12-09T13:03:46.841Z,99575.81
2018-12-09T13:06:17.106Z,99579.31
2018-12-09T13:08:47.032Z,99592.91
2018-12-09T13:11:17.363Z,99585.27
2018-12-09T13:13:47.312Z,99589.31
2018-12-09T13:16:19.170Z,99594.22
2018-12-09T13:18:51.240Z,99594.22
2018-12-09T13:21:21.438Z,99602.66
2018-12-09T13:23:52.125Z,99597.23
2018-12-09T13:26:22.754Z,99613.89
2018-12-09T13:28:54.278Z,99602.70
2018-12-09T13:31:23.699Z,99603.12
2018-12-09T13:33:55.228Z,99626.14
2018-12-09T13:36:25.330Z,99626.14
2018-12-09T13:38:59.468Z,99637.17
2018-12-09T13:41:30.786Z,99629.20
2018-12-09T13:44:00.607Z,99645.09
2018-12-09T13:46:35.059Z,99664.69
2018-12-09T13:49:05.136Z,99664.69
2018-12-09T13:51:34.958Z,99680.31
2018-12-09T13:54:05.690Z,99669.44
2018-12-09T13:56:44.406Z,99669.44
2018-12-09T13:59:15.553Z,99684.41
2018-12-09T14:01:47.651Z,99703.52
2018-12-09T14:04:17.933Z,99692.97
2018-12-09T14:06:48.650Z,99694.02
2018-12-09T14:09:19.648Z,99700.09
2018-12-09T14:11:49.943Z,99701.94
2018-12-09T14:14:19.573Z,99710.78
2018-12-09T14:16:53.508Z,99715.88
2018-12-09T14:19:23.562Z,99733.54
2018-12-09T14:21:54.288Z,99727.77
2018-12-09T14:24:27.294Z,99743.02
2018-12-09T14:26:54.462Z,99743.02
2018-12-09T14:29:34.256Z,99759.35
2018-12-09T14:32:04.437Z,99759.35
2018-12-09T14:34:34.345Z,99765.66
2018-12-09T14:37:04.672Z,99768.06
2018-12-09T14:39:36.799Z,99765.94
2018-12-09T14:42:07.184Z,99778.66
2018-12-09T14:44:38.829Z,99780.06
2018-12-09T14:47:10.970Z,99800.88
2018-12-09T14:49:41.639Z,99804.49
2018-12-09T14:52:11.766Z,99812.40
2018-12-09T14:54:42.168Z,99822.23
2018-12-09T14:57:12.898Z,99828.95
2018-12-09T14:59:43.392Z,99832.19
2018-12-09T15:02:13.994Z,99830.20
2018-12-09T15:04:44.171Z,99834.63
2018-12-09T15:07:14.208Z,99840.41
2018-12-09T15:09:44.020Z,99849.55
2018-12-09T15:12:14.345Z,99860.31
2018-12-09T15:14:45.395Z,99865.38
2018-12-09T15:17:15.664Z,99873.62
2018-12-09T15:19:45.693Z,99873.62
2018-12-09T15:22:16.145Z,99881.11
2018-12-09T15:24:47.064Z,99882.16
2018-12-09T15:27:17.420Z,99881.31
2018-12-09T15:29:47.647Z,99890.12
2018-12-09T15:32:17.929Z,99890.20
2018-12-09T15:34:47.949Z,99908.09
2018-12-09T15:37:18.039Z,99909.54
2018-12-09T15:39:50.432Z,99916.42
2018-12-09T15:42:20.807Z,99912.38
2018-12-09T15:44:50.879Z,99917.19
2018-12-09T15:47:20.640Z,99918.63
2018-12-09T15:49:51.478Z,99909.08
2018-12-09T15:52:23.744Z,99920.20
2018-12-09T15:54:53.778Z,99934.48
2018-12-09T15:57:24.047Z,99934.48
2018-12-09T15:59:57.697Z,99932.83
2018-12-09T16:02:28.117Z,99945.99
2018-12-09T16:04:58.680Z,99945.99
2018-12-09T16:07:28.515Z,99958.53
2018-12-09T16:09:59.350Z,99969.45
2018-12-09T16:12:29.265Z,99964.18
2018-12-09T16:15:01.798Z,99983.38
2018-12-09T16:17:35.400Z,99976.97
2018-12-09T16:20:05.926Z,99990.02
2018-12-09T16:22:35.774Z,99986.19
2018-12-09T16:25:06.746Z,99989.28
2018-12-09T16:27:36.748Z,99993.02
2018-12-09T16:30:08.035Z,100006.45
2018-12-09T16:32:37.906Z,100006.45
2018-12-09T16:35:09.554Z,100012.77
2018-12-09T16:37:39.796Z,100022.03
2018-12-09T16:40:09.592Z,100030.87
2018-12-09T16:42:39.418Z,100032.69
2018-12-09T16:45:09.611Z,100032.81
2018-12-09T16:47:39.343Z,100048.50
2018-12-09T16:50:09.622Z,100055.24
2018-12-09T16:52:44.874Z,100069.22
2018-12-09T16:55:15.399Z,100060.59
2018-12-09T16:57:45.567Z,100066.31
2018-12-09T17:00:15.833Z,100078.55
2018-12-09T17:02:45.734Z,100090.13
2018-12-09T17:05:16.088Z,100094.24
2018-12-09T17:07:49.484Z,100117.48
2018-12-09T17:10:19.804Z,100117.94
2018-12-09T17:12:50.317Z,100097.84
2018-12-09T17:15:20.379Z,100122.47
2018-12-09T17:17:51.035Z,100128.73
2018-12-09T17:20:21.510Z,100130.05
2018-12-09T17:22:53.295Z,100142.94
2018-12-09T17:25:23.698Z,100149.10
2018-12-09T17:27:53.879Z,100153.52
2018-12-09T17:30:24.865Z,100150.88
2018-12-09T17:32:54.994Z,100160.55
2018-12-09T17:35:25.229Z,100168.45
2018-12-09T17:37:55.844Z,100181.55
2018-12-09T17:40:26.578Z,100186.57
2018-12-09T17:42:56.805Z,100197.41
2018-12-09T17:45:27.841Z,100209.77
2018-12-09T17:47:58.686Z,100214.17
2018-12-09T17:50:28.596Z,100218.02
2018-12-09T17:52:58.756Z,100221.04
2018-12-09T17:55:29.046Z,100237.30
2018-12-09T17:57:58.754Z,100225.06
2018-12-09T18:00:29.932Z,100236.30
2018-12-09T18:03:00.739Z,100250.03
2018-12-09T18:05:31.362Z,100245.66
2018-12-09T18:08:02.289Z,100253.16
2018-12-09T18:10:32.226Z,100263.30
2018-12-09T18:13:03.343Z,100279.12
2018-12-09T18:15:33.180Z,100254.61
2018-12-09T18:18:03.705Z,100280.22
2018-12-09T18:20:34.111Z,100274.56
2018-12-09T18:23:04.262Z,100277.16
2018-12-09T18:25:34.097Z,100281.36
2018-12-09T18:28:04.346Z,100284.42
2018-12-09T18:30:34.922Z,100302.91
2018-12-09T18:33:05.192Z,100295.91
2018-12-09T18:35:37.679Z,100299.36
2018-12-09T18:38:05.950Z,100320.38
2018-12-09T18:40:36.895Z,100312.16
2018-12-09T18:43:08.091Z,100324.92
2018-12-09T18:45:38.104Z,100328.91
2018-12-09T18:48:08.539Z,100341.77
2018-12-09T18:50:39.176Z,100347.33
2018-12-09T18:53:08.987Z,100346.44
2018-12-09T18:55:39.918Z,100353.42
2018-12-09T18:58:09.601Z,100355.22
2018-12-09T19:00:40.207Z,100356.97
2018-12-09T19:03:10.314Z,100356.11
2018-12-09T19:05:40.811Z,100377.08
2018-12-09T19:08:10.925Z,100398.55
2018-12-09T19:10:41.253Z,100411.72
2018-12-09T19:13:11.172Z,100400.79
2018-12-09T19:15:40.932Z,100398.22
2018-12-09T19:18:11.821Z,100423.23
2018-12-09T19:20:42.006Z,100426.38
2018-12-09T19:23:11.997Z,100443.58
2018-12-09T19:25:42.030Z,100433.63
2018-12-09T19:28:11.989Z,100429.20
2018-12-09T19:30:48.195Z,100430.27
2018-12-09T19:33:11.864Z,100428.47
2018-12-09T19:35:41.983Z,100432.05
2018-12-09T19:38:11.955Z,100438.16
2018-12-09T19:40:42.135Z,100450.06
2018-12-09T19:43:13.269Z,100458.42
2018-12-09T19:45:42.334Z,100477.58
2018-12-09T19:48:12.328Z,100481.47
2018-12-09T19:50:43.093Z,100476.20
2018-12-09T19:53:13.505Z,100492.75
2018-12-09T19:55:43.413Z,100493.19
2018-12-09T19:58:13.573Z,100504.75
2018-12-09T20:00:43.335Z,100501.31
2018-12-09T20:03:13.425Z,100513.67
2018-12-09T20:05:43.294Z,100517.19
2018-12-09T20:08:13.157Z,100531.64
2018-12-09T20:10:47.221Z,100533.50
2018-12-09T20:13:17.291Z,100534.86
2018-12-09T20:15:47.730Z,100534.53
2018-12-09T20:18:17.623Z,100552.52
2018-12-09T20:20:47.374Z,100540.27
2018-12-09T20:23:17.682Z,100567.06
2018-12-09T20:25:47.438Z,100552.14
2018-12-09T20:28:17.689Z,100561.43
2018-12-09T20:30:49.184Z,100557.08
2018-12-09T20:33:18.899Z,100564.11
2018-12-09T20:35:48.816Z,100575.55
2018-12-09T20:38:20.671Z,100588.32
2018-12-09T20:40:48.504Z,100591.03
2018-12-09T20:43:19.731Z,100607.24
2018-12-09T20:45:49.515Z,100593.71
2018-12-09T20:48:19.579Z,100603.80
2018-12-09T20:50:50.561Z,100599.43
2018-12-09T20:53:21.541Z,100605.61
2018-12-09T20:55:52.598Z,100622.78
2018-12-09T20:58:23.962Z,100634.69
2018-12-09T21:00:54.482Z,100634.71
2018-12-09T21:03:24.239Z,100640.98
2018-12-09T21:05:55.188Z,100644.09
2018-12-09T21:08:25.043Z,100657.75
2018-12-09T21:10:55.290Z,100648.64
2018-12-09T21:13:25.348Z,100660.11
2018-12-09T21:15:56.090Z,100667.14
2018-12-09T21:18:25.692Z,100669.37
2018-12-09T21:20:56.020Z,100674.27
2018-12-09T21:23:26.054Z,100661.26
2018-12-09T21:25:55.619Z,100678.28
2018-12-09T21:28:25.979Z,100688.61
2018-12-09T21:30:56.451Z,100679.13
2018-12-09T21:33:26.484Z,100691.03
2018-12-09T21:35:56.296Z,100695.59
2018-12-09T21:38:26.203Z,100703.05
2018-12-09T21:40:55.707Z,100692.56
2018-12-09T21:43:25.558Z,100693.54
2018-12-09T21:45:55.404Z,100703.69
2018-12-09T21:48:25.143Z,100713.41
2018-12-09T21:50:54.907Z,100708.69
2018-12-09T21:53:24.994Z,100703.45
2018-12-09T21:55:54.624Z,100716.24
2018-12-09T21:58:24.528Z,100720.19
2018-12-09T22:00:54.346Z,100725.45
2018-12-09T22:03:24.306Z,100731.55
2018-12-09T22:05:54.511Z,100721.97
2018-12-09T22:08:24.376Z,100730.31
2018-12-09T22:10:54.576Z,100724.20
2018-12-09T22:13:24.551Z,100747.39
2018-12-09T22:15:54.168Z,100743.06
2018-12-09T22:18:23.766Z,100746.67
2018-12-09T22:20:53.469Z,100749.76
2018-12-09T22:23:23.406Z,100748.49
2018-12-09T22:25:53.103Z,100749.41
2018-12-09T22:28:23.088Z,100760.33
2018-12-09T22:30:52.996Z,100780.88
2018-12-09T22:33:23.005Z,100762.16
2018-12-09T22:35:52.711Z,100766.11
2018-12-09T22:38:22.462Z,100790.19
2018-12-09T22:40:52.576Z,100776.67
2018-12-09T22:43:22.840Z,100789.30
2018-12-09T22:45:52.974Z,100792.02
2018-12-09T22:48:22.992Z,100791.11
2018-12-09T22:50:52.764Z,100812.07
2018-12-09T22:53:22.427Z,100819.09
2018-12-09T22:55:52.102Z,100811.61
2018-12-09T22:58:21.948Z,100822.58
2018-12-09T23:01:09.636Z,100836.05
2018-12-09T23:03:39.752Z,100835.23
2018-12-09T23:06:09.517Z,100836.44
2018-12-09T23:08:39.109Z,100861.00
2018-12-09T23:11:08.889Z,100858.38
2018-12-09T23:13:41.680Z,100865.00
2018-12-09T23:16:11.595Z,100864.59
2018-12-09T23:18:41.153Z,100886.06
2018-12-09T23:21:11.119Z,100867.72
2018-12-09T23:23:41.290Z,100866.94
2018-12-09T23:26:11.181Z,100873.50
2018-12-09T23:28:41.003Z,100869.16
2018-12-09T23:31:10.977Z,100885.88
2018-12-09T23:33:40.526Z,100894.20
2018-12-09T23:36:10.230Z,100896.84
2018-12-09T23:38:42.583Z,100897.30
2018-12-09T23:41:10.011Z,100895.14
2018-12-09T23:43:40.331Z,100895.58
2018-12-09T23:46:13.281Z,100901.39
2018-12-09T23:48:43.295Z,100911.45
2018-12-09T23:51:13.269Z,100920.19
2018-12-09T23:53:43.426Z,100918.91
2018-12-09T23:56:13.203Z,100914.94
2018-12-09T23:58:43.030Z,100935.98
